createdAt,value
2022-11-02T00:00:13.403Z,100.00
2022-11-02T00:02:39.904Z,100.00
2022-11-02T00:05:06.372Z,100.00
2022-11-02T00:07:32.737Z,100.00
2022-11-02T00:09:59.064Z,100.00
2022-11-02T00:12:25.401Z,100.00
2022-11-02T00:14:51.729Z,99.56
2022-11-02T00:17:18.406Z,99.79
2022-11-02T00:19:45.150Z,100.00
2022-11-02T00:22:11.513Z,99.80
2022-11-02T00:24:37.871Z,99.73
2022-11-02T00:27:04.267Z,99.86
2022-11-02T00:29:33.777Z,99.88
2022-11-02T00:32:00.481Z,99.39
2022-11-02T00:34:26.815Z,99.88
2022-11-02T00:36:55.590Z,99.80
2022-11-02T00:39:22.154Z,99.87
2022-11-02T00:41:48.473Z,100.00
2022-11-02T00:44:14.899Z,99.59
2022-11-02T00:46:41.224Z,100.00
2022-11-02T00:49:07.617Z,100.00
2022-11-02T00:51:33.926Z,100.00
2022-11-02T00:54:00.271Z,100.00
2022-11-02T00:56:26.600Z,100.00
2022-11-02T00:58:53.055Z,100.00
2022-11-02T01:01:19.451Z,100.00
2022-11-02T01:03:45.889Z,100.00
2022-11-02T01:06:12.845Z,100.00
2022-11-02T01:08:39.159Z,100.00
2022-11-02T01:11:09.307Z,100.00
2022-11-02T01:13:35.616Z,100.00
2022-11-02T01:16:03.588Z,100.00
2022-11-02T01:18:30.022Z,100.00
2022-11-02T01:20:56.920Z,100.00
2022-11-02T01:23:23.238Z,100.00
2022-11-02T01:25:49.593Z,100.00
2022-11-02T01:28:15.928Z,100.00
2022-11-02T01:30:42.270Z,100.00
2022-11-02T01:33:08.581Z,100.00
2022-11-02T01:35:36.578Z,100.00
2022-11-02T01:38:03.034Z,100.00
2022-11-02T01:40:34.574Z,100.00
2022-11-02T01:43:00.886Z,100.00
2022-11-02T01:45:27.242Z,100.00
2022-11-02T01:47:53.589Z,100.00
2022-11-02T01:50:23.674Z,100.00
2022-11-02T01:52:50.001Z,99.78
2022-11-02T01:55:23.296Z,99.44
2022-11-02T01:57:53.809Z,99.35
2022-11-02T02:00:20.138Z,99.57
2022-11-02T02:02:51.197Z,99.71
2022-11-02T02:05:17.814Z,99.48
2022-11-02T02:07:44.194Z,99.74
2022-11-02T02:10:10.579Z,99.52
2022-11-02T02:12:37.526Z,99.86
2022-11-02T02:15:04.974Z,99.93
2022-11-02T02:17:31.285Z,99.61
2022-11-02T02:20:10.541Z,100.00
2022-11-02T02:22:52.223Z,100.00
2022-11-02T02:25:37.458Z,100.00
2022-11-02T02:28:11.522Z,100.00
2022-11-02T02:30:43.601Z,100.00
2022-11-02T02:33:30.068Z,100.00
2022-11-02T02:36:07.105Z,100.00
2022-11-02T02:38:33.423Z,100.00
2022-11-02T02:41:03.838Z,100.00
2022-11-02T02:43:32.482Z,100.00
2022-11-02T02:46:00.312Z,100.00
2022-11-02T02:48:26.822Z,100.00
2022-11-02T02:50:58.059Z,100.00
2022-11-02T02:53:44.621Z,100.00
2022-11-02T02:56:10.938Z,100.00
2022-11-02T02:58:38.901Z,100.00
2022-11-02T03:01:05.292Z,100.00
2022-11-02T03:03:31.663Z,100.00
2022-11-02T03:06:03.166Z,100.00
2022-11-02T03:08:29.485Z,100.00
2022-11-02T03:11:03.145Z,100.00
2022-11-02T03:13:34.337Z,100.00
2022-11-02T03:16:19.134Z,100.00
2022-11-02T03:18:49.498Z,100.00
2022-11-02T03:21:19.817Z,100.00
2022-11-02T03:23:53.099Z,100.00
2022-11-02T03:26:23.313Z,100.00
2022-11-02T03:29:03.949Z,100.00
2022-11-02T03:31:33.320Z,100.00
2022-11-02T03:34:06.081Z,100.00
2022-11-02T03:36:48.977Z,100.00
2022-11-02T03:39:15.555Z,100.00
2022-11-02T03:41:42.422Z,100.00
2022-11-02T03:44:10.437Z,100.00
2022-11-02T03:46:37.441Z,100.00
2022-11-02T03:49:07.594Z,100.00
2022-11-02T03:51:35.017Z,100.00
2022-11-02T03:54:15.741Z,100.00
2022-11-02T03:56:42.743Z,100.00
2022-11-02T03:59:09.150Z,100.00
2022-11-02T04:01:42.458Z,100.00
2022-11-02T04:04:08.860Z,100.00
2022-11-02T04:06:35.220Z,100.00
2022-11-02T04:09:01.573Z,100.00
2022-11-02T04:11:46.678Z,100.00
2022-11-02T04:14:31.837Z,100.00
2022-11-02T04:17:16.958Z,100.00
2022-11-02T04:19:45.585Z,100.00
2022-11-02T04:22:33.833Z,100.00
2022-11-02T04:25:18.914Z,100.00
2022-11-02T04:27:46.634Z,100.00
2022-11-02T04:30:13.555Z,100.00
2022-11-02T04:32:59.134Z,100.00
2022-11-02T04:35:25.520Z,100.00
2022-11-02T04:38:10.707Z,100.00
2022-11-02T04:40:37.082Z,100.00
2022-11-02T04:43:03.409Z,100.00
2022-11-02T04:45:29.778Z,100.00
2022-11-02T04:47:59.725Z,100.00
2022-11-02T04:50:26.052Z,100.00
2022-11-02T04:52:58.898Z,100.00
2022-11-02T04:55:25.304Z,100.00
2022-11-02T04:57:51.631Z,100.00
2022-11-02T05:00:18.379Z,100.00
2022-11-02T05:02:46.332Z,100.00
2022-11-02T05:05:13.995Z,100.00
2022-11-02T05:07:40.333Z,100.00
2022-11-02T05:10:06.790Z,100.00
2022-11-02T05:12:33.118Z,100.00
2022-11-02T05:14:59.457Z,100.00
2022-11-02T05:17:25.785Z,100.00
2022-11-02T05:19:52.127Z,100.00
2022-11-02T05:22:18.463Z,100.00
2022-11-02T05:24:45.257Z,100.00
2022-11-02T05:27:14.637Z,100.00
2022-11-02T05:29:41.901Z,100.00
2022-11-02T05:32:08.239Z,100.00
2022-11-02T05:34:34.597Z,100.00
2022-11-02T05:37:00.974Z,100.00
2022-11-02T05:39:27.337Z,100.00
2022-11-02T05:41:53.658Z,100.00
2022-11-02T05:44:20.525Z,100.00
2022-11-02T05:46:46.853Z,100.00
2022-11-02T05:49:13.228Z,100.00
2022-11-02T05:51:39.767Z,100.00
2022-11-02T05:54:06.106Z,100.00
2022-11-02T05:56:32.437Z,100.00
2022-11-02T05:58:58.837Z,100.00
2022-11-02T06:01:25.229Z,100.00
2022-11-02T06:03:53.661Z,100.00
2022-11-02T06:06:20.333Z,100.00
2022-11-02T06:08:46.645Z,100.00
2022-11-02T06:11:13.299Z,100.00
2022-11-02T06:13:40.209Z,100.00
2022-11-02T06:16:07.933Z,100.00
2022-11-02T06:18:34.255Z,100.00
2022-11-02T06:21:00.656Z,100.00
2022-11-02T06:23:27.047Z,100.00
2022-11-02T06:25:53.661Z,100.00
2022-11-02T06:28:20.217Z,100.00
2022-11-02T06:30:46.814Z,100.00
2022-11-02T06:33:13.823Z,100.00
2022-11-02T06:35:40.392Z,100.00
2022-11-02T06:38:06.718Z,100.00
2022-11-02T06:40:33.319Z,100.00
2022-11-02T06:45:46.719Z,100.00
2022-11-02T06:48:13.092Z,100.00
2022-11-02T06:50:39.440Z,100.00
2022-11-02T06:53:06.089Z,100.00
2022-11-02T06:55:32.832Z,100.00
2022-11-02T06:57:59.153Z,100.00
2022-11-02T07:00:25.577Z,100.00
2022-11-02T07:03:01.367Z,100.00
2022-11-02T07:05:27.884Z,100.00
2022-11-02T07:07:54.201Z,100.00
2022-11-02T07:10:20.508Z,100.00
2022-11-02T07:12:46.847Z,100.00
2022-11-02T07:15:13.822Z,100.00
2022-11-02T07:17:40.421Z,100.00
2022-11-02T07:20:07.136Z,100.00
2022-11-02T07:22:33.579Z,100.00
2022-11-02T07:24:59.900Z,100.00
2022-11-02T07:27:26.227Z,100.00
2022-11-02T07:29:52.565Z,100.00
2022-11-02T07:32:18.898Z,100.00
2022-11-02T07:34:45.238Z,100.00
2022-11-02T07:37:11.558Z,100.00
2022-11-02T07:39:37.889Z,100.00
2022-11-02T07:42:07.196Z,100.00
2022-11-02T07:44:33.535Z,100.00
2022-11-02T07:47:00.207Z,100.00
2022-11-02T07:49:26.545Z,100.00
2022-11-02T07:51:52.981Z,100.00
2022-11-02T07:54:19.433Z,100.00
2022-11-02T07:56:45.780Z,100.00
2022-11-02T07:59:12.921Z,100.00
2022-11-02T08:01:39.355Z,100.00
2022-11-02T08:04:05.734Z,100.00
2022-11-02T08:06:32.130Z,100.00
2022-11-02T08:08:58.484Z,100.00
2022-11-02T08:11:24.874Z,100.00
2022-11-02T08:13:51.201Z,98.37
2022-11-02T08:16:17.583Z,98.42
2022-11-02T08:18:44.002Z,96.87
2022-11-02T08:21:10.361Z,96.11
2022-11-02T08:23:36.743Z,98.24
2022-11-02T08:26:03.133Z,96.07
2022-11-02T08:28:36.570Z,95.24
2022-11-02T08:31:02.992Z,94.25
2022-11-02T08:33:29.391Z,95.18
2022-11-02T08:35:56.992Z,94.58
2022-11-02T08:38:23.411Z,92.91
2022-11-02T08:40:49.844Z,92.38
2022-11-02T08:43:16.181Z,92.94
2022-11-02T08:48:30.830Z,92.49
2022-11-02T08:50:57.226Z,92.74
2022-11-02T08:53:23.610Z,90.98
2022-11-02T08:55:49.922Z,90.05
2022-11-02T08:58:16.291Z,90.02
2022-11-02T09:00:42.734Z,90.37
2022-11-02T09:03:12.599Z,89.43
2022-11-02T09:05:39.811Z,89.46
2022-11-02T09:08:07.447Z,89.58
2022-11-02T09:10:34.550Z,88.12
2022-11-02T09:13:00.999Z,88.74
2022-11-02T09:15:27.691Z,86.35
2022-11-02T09:17:54.009Z,84.29
2022-11-02T09:20:20.440Z,84.32
2022-11-02T09:22:46.854Z,82.52
2022-11-02T09:25:13.425Z,82.27
2022-11-02T09:27:40.095Z,82.25
2022-11-02T09:30:06.674Z,81.68
2022-11-02T09:32:33.684Z,80.43
2022-11-02T09:35:03.515Z,81.15
2022-11-02T09:37:29.867Z,81.89
2022-11-02T09:39:56.292Z,82.40
2022-11-02T09:42:24.208Z,80.49
2022-11-02T09:44:58.133Z,80.93
2022-11-02T09:50:13.851Z,79.09
2022-11-02T09:52:40.267Z,76.78
2022-11-02T09:55:15.750Z,76.77
2022-11-02T09:57:42.477Z,76.24
2022-11-02T10:00:12.651Z,76.30
2022-11-02T10:02:57.856Z,76.81
2022-11-02T10:05:27.281Z,76.09
2022-11-02T10:07:58.534Z,74.88
2022-11-02T10:10:27.960Z,74.40
2022-11-02T10:12:54.329Z,74.98
2022-11-02T10:15:22.598Z,75.51
2022-11-02T10:17:48.996Z,76.22
2022-11-02T10:20:21.477Z,76.09
2022-11-02T10:22:47.797Z,74.22
2022-11-02T10:25:14.941Z,75.23
2022-11-02T10:27:41.349Z,75.61
2022-11-02T10:30:11.242Z,76.46
2022-11-02T10:32:37.879Z,76.42
2022-11-02T10:35:25.255Z,77.63
2022-11-02T10:37:55.195Z,75.96
2022-11-02T10:40:40.346Z,75.85
2022-11-02T10:43:09.694Z,74.21
2022-11-02T10:45:40.688Z,73.67
2022-11-02T10:48:26.061Z,71.53
2022-11-02T10:51:21.989Z,72.05
2022-11-02T10:53:48.860Z,69.07
2022-11-02T10:56:15.854Z,67.52
2022-11-02T10:58:45.118Z,67.25
2022-11-02T11:01:11.913Z,64.55
2022-11-02T11:03:57.082Z,64.77
2022-11-02T11:06:30.924Z,66.17
2022-11-02T11:09:01.840Z,64.37
2022-11-02T11:11:29.215Z,63.43
2022-11-02T11:19:50.288Z,64.27
2022-11-02T11:22:22.614Z,63.92
2022-11-02T11:24:48.957Z,64.50
2022-11-02T11:27:21.989Z,67.41
2022-11-02T11:29:58.360Z,67.85
2022-11-02T11:32:29.833Z,66.09
2022-11-02T11:35:00.044Z,68.59
2022-11-02T11:37:26.658Z,66.27
2022-11-02T11:39:55.052Z,64.76
2022-11-02T11:42:22.291Z,66.48
2022-11-02T11:45:04.757Z,64.61
2022-11-02T11:47:40.243Z,67.45
2022-11-02T11:50:10.415Z,64.65
2022-11-02T11:52:47.294Z,63.89
2022-11-02T11:55:19.952Z,63.51
2022-11-02T11:57:46.269Z,64.81
2022-11-02T12:00:26.678Z,63.82
2022-11-02T12:03:22.545Z,63.14
2022-11-02T12:05:48.972Z,63.96
2022-11-02T12:08:15.289Z,62.76
2022-11-02T12:10:41.592Z,64.43
2022-11-02T12:13:17.069Z,64.75
2022-11-02T12:16:02.309Z,64.39
2022-11-02T12:18:33.924Z,65.46
2022-11-02T12:21:13.634Z,65.21
2022-11-02T12:23:49.957Z,67.20
2022-11-02T12:26:35.148Z,65.43
2022-11-02T12:29:06.382Z,64.35
2022-11-02T12:31:36.798Z,63.91
2022-11-02T12:34:21.662Z,64.68
2022-11-02T12:37:26.555Z,65.76
2022-11-02T12:39:43.320Z,62.63
2022-11-02T12:42:17.475Z,63.06
2022-11-02T12:44:55.870Z,62.24
2022-11-02T12:47:36.340Z,61.98
2022-11-02T12:50:08.747Z,63.38
2022-11-02T12:52:54.132Z,61.45
2022-11-02T12:55:30.210Z,61.70
2022-11-02T12:58:00.364Z,62.18
2022-11-02T13:00:26.700Z,62.58
2022-11-02T13:02:55.711Z,63.88
2022-11-02T13:05:23.517Z,63.24
2022-11-02T13:08:08.694Z,63.59
2022-11-02T13:10:53.740Z,63.71
2022-11-02T13:13:37.753Z,64.18
2022-11-02T13:16:04.259Z,64.25
2022-11-02T13:18:31.017Z,62.60
2022-11-02T13:20:57.711Z,63.18
2022-11-02T13:23:42.789Z,63.77
2022-11-02T13:26:15.421Z,65.88
2022-11-02T13:28:43.076Z,64.82
2022-11-02T13:31:21.197Z,63.87
2022-11-02T13:33:48.483Z,64.45
2022-11-02T13:36:14.801Z,65.40
2022-11-02T13:38:44.188Z,65.25
2022-11-02T13:41:13.477Z,66.48
2022-11-02T13:43:58.733Z,67.00
2022-11-02T13:46:43.444Z,68.32
2022-11-02T13:49:16.096Z,66.21
2022-11-02T13:51:45.528Z,66.30
2022-11-02T13:54:16.512Z,66.17
2022-11-02T13:56:42.997Z,66.85
2022-11-02T13:59:10.315Z,66.88
2022-11-02T14:01:38.484Z,65.76
2022-11-02T14:04:11.251Z,67.20
2022-11-02T14:06:46.668Z,65.56
2022-11-02T14:09:20.605Z,66.96
2022-11-02T14:11:47.652Z,65.77
2022-11-02T14:14:18.633Z,66.28
2022-11-02T14:16:48.363Z,64.65
2022-11-02T14:19:19.202Z,66.67
2022-11-02T14:22:03.679Z,67.48
2022-11-02T14:24:36.237Z,65.84
2022-11-02T14:27:11.763Z,67.39
2022-11-02T14:29:38.867Z,67.38
2022-11-02T14:32:08.695Z,65.84
2022-11-02T14:34:50.843Z,64.99
2022-11-02T14:37:36.447Z,67.78
2022-11-02T14:40:17.715Z,67.05
2022-11-02T14:42:59.298Z,67.56
2022-11-02T14:45:35.560Z,66.66
2022-11-02T14:48:02.740Z,65.85
2022-11-02T14:50:29.128Z,66.23
2022-11-02T14:52:57.660Z,66.16
2022-11-02T14:55:23.985Z,66.00
2022-11-02T14:57:57.938Z,67.43
2022-11-02T15:00:25.378Z,68.08
2022-11-02T15:02:53.483Z,71.42
2022-11-02T15:05:38.492Z,71.41
2022-11-02T15:08:08.420Z,72.79
2022-11-02T15:10:35.732Z,74.14
2022-11-02T15:13:20.537Z,73.99
2022-11-02T15:15:50.018Z,77.46
2022-11-02T15:18:35.456Z,79.35
2022-11-02T15:21:10.875Z,79.72
2022-11-02T15:26:19.710Z,81.16
2022-11-02T15:28:47.054Z,81.16
2022-11-02T15:31:21.788Z,84.06
2022-11-02T15:33:51.639Z,83.67
2022-11-02T15:36:19.158Z,83.92
2022-11-02T15:38:46.774Z,83.68
2022-11-02T15:41:16.855Z,84.82
2022-11-02T15:43:46.230Z,86.92
2022-11-02T15:46:17.483Z,87.59
2022-11-02T15:48:47.938Z,88.02
2022-11-02T15:51:18.026Z,89.32
2022-11-02T15:53:44.362Z,90.18
2022-11-02T15:56:13.785Z,90.60
2022-11-02T15:58:58.867Z,91.10
2022-11-02T16:01:28.677Z,91.85
2022-11-02T16:03:58.666Z,90.56
2022-11-02T16:06:29.122Z,90.76
2022-11-02T16:08:57.333Z,91.00
2022-11-02T16:11:23.969Z,92.28
2022-11-02T16:16:47.950Z,92.83
2022-11-02T16:19:18.337Z,93.00
2022-11-02T16:21:44.654Z,92.91
2022-11-02T16:24:10.978Z,95.40
2022-11-02T16:26:37.326Z,94.72
2022-11-02T16:29:03.862Z,94.60
2022-11-02T16:31:33.104Z,94.16
2022-11-02T16:34:00.518Z,95.14
2022-11-02T16:36:33.510Z,95.30
2022-11-02T16:39:07.346Z,94.90
2022-11-02T16:41:34.000Z,94.93
2022-11-02T16:44:01.147Z,95.14
2022-11-02T16:46:50.855Z,95.04
2022-11-02T16:49:18.631Z,95.65
2022-11-02T16:51:51.919Z,95.68
2022-11-02T16:54:26.456Z,97.15
2022-11-02T16:56:53.032Z,97.78
2022-11-02T16:59:21.309Z,98.82
2022-11-02T17:01:47.780Z,99.32
2022-11-02T17:04:20.354Z,100.00
2022-11-02T17:06:47.064Z,100.00
2022-11-02T17:09:20.011Z,99.36
2022-11-02T17:11:46.442Z,97.52
2022-11-02T17:14:12.781Z,97.37
2022-11-02T17:16:50.193Z,98.65
2022-11-02T17:19:35.570Z,98.70
2022-11-02T17:22:25.213Z,99.64
2022-11-02T17:27:37.654Z,100.00
2022-11-02T17:30:22.902Z,100.00
2022-11-02T17:32:49.298Z,100.00
2022-11-02T17:35:15.644Z,100.00
2022-11-02T17:37:41.964Z,100.00
2022-11-02T17:40:09.282Z,100.00
2022-11-02T17:42:54.337Z,100.00
2022-11-02T17:45:20.909Z,100.00
2022-11-02T17:47:47.234Z,100.00
2022-11-02T17:50:13.936Z,100.00
2022-11-02T17:52:40.297Z,100.00
2022-11-02T17:55:07.124Z,100.00
2022-11-02T17:57:33.698Z,100.00
2022-11-02T18:00:00.099Z,100.00
2022-11-02T18:02:26.545Z,100.00
2022-11-02T18:04:53.066Z,100.00
2022-11-02T18:07:19.378Z,100.00
2022-11-02T18:09:45.732Z,100.00
2022-11-02T18:12:15.204Z,100.00
2022-11-02T18:14:41.684Z,100.00
2022-11-02T18:17:08.268Z,100.00
2022-11-02T18:19:34.606Z,100.00
2022-11-02T18:22:00.960Z,100.00
2022-11-02T18:24:27.368Z,100.00
2022-11-02T18:26:54.426Z,100.00
2022-11-02T18:29:20.815Z,100.00
2022-11-02T18:31:47.131Z,100.00
2022-11-02T18:34:16.299Z,100.00
2022-11-02T18:36:43.235Z,100.00
2022-11-02T18:39:09.590Z,100.00
2022-11-02T18:41:37.031Z,100.00
2022-11-02T18:44:08.893Z,100.00
2022-11-02T18:46:36.811Z,100.00
2022-11-02T18:49:03.135Z,100.00
2022-11-02T18:51:29.445Z,100.00
2022-11-02T18:54:05.319Z,100.00
2022-11-02T18:56:31.656Z,100.00
2022-11-02T18:58:58.000Z,100.00
2022-11-02T19:01:24.747Z,100.00
2022-11-02T19:03:54.921Z,100.00
2022-11-02T19:06:40.015Z,100.00
2022-11-02T19:09:18.691Z,100.00
2022-11-02T19:11:51.179Z,100.00
2022-11-02T19:14:17.868Z,100.00
2022-11-02T19:16:44.254Z,100.00
2022-11-02T19:19:10.602Z,100.00
2022-11-02T19:21:36.944Z,100.00
2022-11-02T19:24:06.652Z,100.00
2022-11-02T19:26:33.858Z,100.00
2022-11-02T19:29:04.825Z,100.00
2022-11-02T19:31:33.637Z,100.00
2022-11-02T19:33:59.974Z,100.00
2022-11-02T19:36:26.418Z,100.00
2022-11-02T19:38:52.745Z,100.00
2022-11-02T19:41:19.294Z,100.00
2022-11-02T19:43:45.664Z,100.00
2022-11-02T19:46:13.790Z,100.00
2022-11-02T19:48:40.126Z,100.00
2022-11-02T19:51:12.397Z,100.00
2022-11-02T19:53:41.377Z,100.00
2022-11-02T19:56:11.222Z,100.00
2022-11-02T19:58:37.743Z,100.00
2022-11-02T20:01:07.844Z,100.00
2022-11-02T20:03:34.238Z,100.00
2022-11-02T20:06:01.004Z,100.00
2022-11-02T20:08:27.355Z,100.00
2022-11-02T20:10:53.762Z,100.00
2022-11-02T20:13:20.089Z,100.00
2022-11-02T20:15:46.471Z,100.00
2022-11-02T20:18:19.586Z,100.00
2022-11-02T20:20:46.565Z,100.00
2022-11-02T20:23:12.893Z,100.00
2022-11-02T20:25:39.220Z,100.00
2022-11-02T20:28:05.805Z,100.00
2022-11-02T20:30:32.327Z,100.00
2022-11-02T20:32:58.653Z,100.00
2022-11-02T20:35:25.918Z,100.00
2022-11-02T20:37:53.374Z,100.00
2022-11-02T20:40:19.750Z,100.00
2022-11-02T20:42:50.260Z,100.00
2022-11-02T20:45:17.792Z,100.00
2022-11-02T20:47:44.114Z,100.00
2022-11-02T20:50:15.807Z,99.99
2022-11-02T20:52:44.126Z,98.85
2022-11-02T20:55:10.465Z,98.38
2022-11-02T20:57:37.686Z,97.44
2022-11-02T21:00:04.486Z,96.48
2022-11-02T21:02:30.962Z,95.68
2022-11-02T21:04:57.394Z,96.44
2022-11-02T21:07:23.709Z,98.86
2022-11-02T21:09:50.074Z,99.85
2022-11-02T21:12:35.320Z,100.00
2022-11-02T21:15:02.338Z,100.00
2022-11-02T21:17:28.649Z,100.00
2022-11-02T21:19:58.303Z,100.00
2022-11-02T21:22:34.447Z,100.00
2022-11-02T21:25:00.762Z,100.00
2022-11-02T21:27:27.204Z,100.00
2022-11-02T21:29:53.533Z,100.00
2022-11-02T21:32:19.863Z,99.51
2022-11-02T21:34:46.242Z,98.68
2022-11-02T21:37:12.599Z,98.00
2022-11-02T21:39:39.051Z,96.90
2022-11-02T21:42:05.509Z,96.27
2022-11-02T21:44:31.851Z,96.07
2022-11-02T21:46:58.243Z,96.18
2022-11-02T21:49:24.636Z,95.57
2022-11-02T21:51:50.953Z,95.20
2022-11-02T21:54:17.304Z,95.97
2022-11-02T21:56:43.723Z,95.64
2022-11-02T21:59:10.131Z,95.57
2022-11-02T22:01:47.899Z,95.12
2022-11-02T22:04:19.341Z,96.22
2022-11-02T22:06:45.694Z,96.88
2022-11-02T22:09:12.284Z,96.85
2022-11-02T22:11:38.604Z,96.18
2022-11-02T22:14:05.025Z,96.40
2022-11-02T22:16:35.124Z,96.25
2022-11-02T22:19:02.665Z,96.14
2022-11-02T22:21:30.495Z,96.03
2022-11-02T22:23:56.905Z,96.65
2022-11-02T22:26:23.957Z,95.74
2022-11-02T22:28:50.416Z,96.08
2022-11-02T22:31:23.875Z,96.46
2022-11-02T22:33:50.981Z,96.68
2022-11-02T22:36:18.317Z,96.72
2022-11-02T22:38:54.271Z,96.80
2022-11-02T22:41:24.565Z,96.99
2022-11-02T22:43:52.111Z,96.59
2022-11-02T22:46:18.488Z,96.62
2022-11-02T22:48:44.893Z,95.87
2022-11-02T22:51:11.620Z,96.07
2022-11-02T22:53:38.508Z,95.10
2022-11-02T22:56:07.674Z,95.26
2022-11-02T22:58:34.061Z,95.79
2022-11-02T23:01:00.439Z,95.81
2022-11-02T23:03:26.884Z,95.39
2022-11-02T23:05:53.211Z,95.22
2022-11-02T23:08:19.655Z,95.37
2022-11-02T23:11:04.975Z,95.16
2022-11-02T23:13:31.397Z,95.06
2022-11-02T23:16:21.220Z,94.96
2022-11-02T23:19:26.487Z,94.37
2022-11-02T23:22:13.091Z,95.31
2022-11-02T23:24:58.785Z,94.89
2022-11-02T23:27:25.190Z,95.08
2022-11-02T23:30:10.357Z,94.31
2022-11-02T23:32:36.688Z,94.11
2022-11-02T23:35:21.865Z,93.96
2022-11-02T23:37:48.296Z,93.98
2022-11-02T23:40:15.726Z,94.64
2022-11-02T23:42:42.077Z,94.43
2022-11-02T23:45:08.909Z,94.58
2022-11-02T23:47:54.350Z,94.24
2022-11-02T23:50:39.562Z,93.99
2022-11-02T23:53:25.115Z,93.83
2022-11-02T23:56:10.053Z,94.15
2022-11-02T23:58:37.120Z,94.09
